Time;durP1;ratioP1;P1;durP2;ratioP2;P2;SDS_P1;SDS_P2;PMS_P1;PMS_P2;Temp;Humidity;BMP_temperature;BMP_pressure;BME280_temperature;BME280_humidity;BME280_pressure;Samples;Min_cycle;Max_cycle;Signal;HPM_P1;HPM_P2
2022/04/06 00:00:12;;;;;;;25.52;11.73;;;;;;;;;;5050988;28;20048;-69
2022/04/06 00:02:39;;;;;;;26.33;11.38;;;;;;;;;;5053991;28;20500;-69
2022/04/06 00:05:06;;;;;;;26.95;11.65;;;;;;;;;;5052003;28;20037;-69
2022/04/06 00:07:32;;;;;;;24.75;11.73;;;;;;;;;;5054403;28;20048;-69
2022/04/06 00:09:58;;;;;;;30.92;12.43;;;;;;;;;;5055477;28;20048;-69
2022/04/06 00:12:24;;;;;;;23.10;11.35;;;;;;;;;;5054883;28;20051;-69
2022/04/06 00:14:51;;;;;;;26.40;11.63;;;;;;;;;;5053590;28;20055;-69
2022/04/06 00:17:17;;;;;;;23.33;11.38;;;;;;;;;;5036509;28;20124;-69
2022/04/06 00:19:43;;;;;;;28.23;12.05;;;;;;;;;;5053298;28;20049;-69
2022/04/06 00:22:09;;;;;;;21.77;12.05;;;;;;;;;;5052510;28;20060;-69
2022/04/06 00:24:35;;;;;;;31.40;13.40;;;;;;;;;;5070958;28;20059;-69
2022/04/06 00:27:01;;;;;;;28.17;12.40;;;;;;;;;;5052557;28;20040;-69
2022/04/06 00:29:27;;;;;;;27.02;11.65;;;;;;;;;;5054067;28;20721;-69
2022/04/06 00:31:53;;;;;;;25.45;11.65;;;;;;;;;;5053629;28;20040;-69
2022/04/06 00:34:19;;;;;;;28.00;11.98;;;;;;;;;;5053427;28;20036;-69
2022/04/06 00:37:05;;;;;;;23.48;11.13;;;;;;;;;;5038774;28;20177;-69
2022/04/06 00:39:31;;;;;;;24.92;11.63;;;;;;;;;;5053350;28;20043;-69
2022/04/06 00:41:57;;;;;;;26.17;11.13;;;;;;;;;;5052302;28;20040;-69
2022/04/06 00:44:23;;;;;;;24.80;11.77;;;;;;;;;;5052598;28;20534;-69
2022/04/06 00:46:50;;;;;;;30.30;11.65;;;;;;;;;;5052839;28;21311;-69
2022/04/06 00:49:16;;;;;;;24.00;11.40;;;;;;;;;;5035238;28;20053;-69
2022/04/06 00:51:44;;;;;;;23.90;10.68;;;;;;;;;;5052552;28;20044;-69
2022/04/06 00:54:11;;;;;;;30.73;12.15;;;;;;;;;;5053620;28;20040;-69
2022/04/06 00:56:37;;;;;;;29.05;12.05;;;;;;;;;;5053118;28;20036;-69
2022/04/06 00:59:04;;;;;;;24.73;11.18;;;;;;;;;;5053186;28;20076;-69
2022/04/06 01:01:30;;;;;;;26.58;11.43;;;;;;;;;;5053204;28;20052;-69
2022/04/06 01:03:56;;;;;;;23.02;10.43;;;;;;;;;;5053255;28;20105;-69
2022/04/06 01:06:23;;;;;;;28.10;11.60;;;;;;;;;;5036711;28;20048;-69
2022/04/06 01:08:51;;;;;;;28.25;10.98;;;;;;;;;;5037265;28;20025;-69
2022/04/06 01:11:18;;;;;;;24.30;10.80;;;;;;;;;;5052736;28;20043;-69
2022/04/06 01:13:45;;;;;;;25.70;11.57;;;;;;;;;;5050625;28;20062;-69
2022/04/06 01:16:11;;;;;;;32.08;11.52;;;;;;;;;;5069727;28;20087;-69
2022/04/06 01:18:37;;;;;;;30.13;11.73;;;;;;;;;;5055087;28;20044;-69
2022/04/06 01:21:03;;;;;;;27.88;10.70;;;;;;;;;;5052140;28;20059;-69
2022/04/06 01:23:30;;;;;;;29.48;11.13;;;;;;;;;;5052986;28;20440;-69
2022/04/06 01:25:56;;;;;;;25.15;10.88;;;;;;;;;;5053327;28;20603;-69
2022/04/06 01:28:22;;;;;;;25.27;9.90;;;;;;;;;;5052269;28;20045;-69
2022/04/06 01:30:48;;;;;;;25.30;10.73;;;;;;;;;;5053770;28;20044;-69
2022/04/06 01:33:14;;;;;;;22.52;9.68;;;;;;;;;;5051848;28;20134;-68
2022/04/06 01:35:42;;;;;;;19.58;9.40;;;;;;;;;;5036244;28;20059;-69
2022/04/06 01:38:09;;;;;;;30.40;10.20;;;;;;;;;;5071699;28;20063;-68
2022/04/06 01:40:35;;;;;;;21.75;9.23;;;;;;;;;;5039546;28;20076;-68
2022/04/06 01:43:01;;;;;;;23.27;8.85;;;;;;;;;;5054051;28;20029;-69
2022/04/06 01:45:27;;;;;;;23.40;9.55;;;;;;;;;;5036503;28;20111;-69
2022/04/06 01:47:53;;;;;;;23.38;8.55;;;;;;;;;;5050983;28;20631;-69
2022/04/06 01:53:04;;;;;;;18.23;7.57;;;;;;;;;;5070471;28;20425;-69
2022/04/06 01:55:30;;;;;;;25.17;9.35;;;;;;;;;;5052658;28;20118;-69
2022/04/06 01:57:56;;;;;;;23.75;7.57;;;;;;;;;;5051024;28;20044;-69
2022/04/06 02:00:22;;;;;;;23.00;7.18;;;;;;;;;;5053587;28;20060;-69
2022/04/06 02:02:52;;;;;;;17.30;7.43;;;;;;;;;;5055428;28;20047;-69
2022/04/06 02:05:19;;;;;;;23.10;7.57;;;;;;;;;;5035460;28;20048;-69
2022/04/06 02:07:49;;;;;;;24.52;7.28;;;;;;;;;;5053275;28;20036;-69
2022/04/06 02:10:16;;;;;;;16.90;6.68;;;;;;;;;;5052831;28;20429;-69
2022/04/06 02:12:42;;;;;;;23.75;6.88;;;;;;;;;;5051723;28;20076;-69
2022/04/06 02:15:12;;;;;;;21.60;7.00;;;;;;;;;;5071132;28;20037;-68
2022/04/06 02:17:39;;;;;;;20.23;7.80;;;;;;;;;;5052911;28;20044;-68
2022/04/06 02:20:05;;;;;;;20.77;7.97;;;;;;;;;;5054959;28;20032;-68
2022/04/06 02:22:31;;;;;;;18.95;7.57;;;;;;;;;;5053496;28;20059;-69
2022/04/06 02:24:57;;;;;;;20.38;8.18;;;;;;;;;;5051651;28;20056;-69
2022/04/06 02:27:23;;;;;;;22.08;7.63;;;;;;;;;;5053663;28;20040;-69
2022/04/06 02:29:49;;;;;;;23.05;8.15;;;;;;;;;;5051684;28;20082;-69
2022/04/06 02:32:15;;;;;;;22.40;7.90;;;;;;;;;;5053647;28;20090;-69
2022/04/06 02:34:42;;;;;;;26.08;8.27;;;;;;;;;;5053564;28;20044;-69
2022/04/06 02:37:09;;;;;;;29.45;8.88;;;;;;;;;;5054749;28;20074;-69
2022/04/06 02:39:35;;;;;;;19.48;7.88;;;;;;;;;;5053912;28;20433;-69
2022/04/06 02:42:01;;;;;;;23.95;8.75;;;;;;;;;;5051409;28;20060;-69
2022/04/06 02:44:27;;;;;;;19.73;8.05;;;;;;;;;;5053788;28;20087;-69
2022/04/06 02:46:53;;;;;;;28.27;9.43;;;;;;;;;;5052862;28;20435;-69
2022/04/06 02:49:19;;;;;;;26.45;9.13;;;;;;;;;;5052465;28;20043;-69
2022/04/06 02:51:46;;;;;;;27.73;9.40;;;;;;;;;;5054852;28;20040;-69
2022/04/06 02:54:12;;;;;;;27.63;9.73;;;;;;;;;;5054746;28;20044;-68
2022/04/06 02:56:38;;;;;;;27.23;9.93;;;;;;;;;;5053929;28;20051;-68
2022/04/06 02:59:04;;;;;;;33.05;10.93;;;;;;;;;;5071145;28;20076;-68
2022/04/06 03:01:30;;;;;;;29.67;11.18;;;;;;;;;;5053703;28;20056;-68
2022/04/06 03:03:56;;;;;;;31.42;10.55;;;;;;;;;;5053731;28;20133;-68
2022/04/06 03:06:22;;;;;;;30.25;10.88;;;;;;;;;;5054349;28;20050;-69
2022/04/06 03:08:49;;;;;;;30.88;11.30;;;;;;;;;;5053878;28;20116;-69
2022/04/06 03:11:15;;;;;;;31.75;11.18;;;;;;;;;;5052225;28;20035;-69
2022/04/06 03:13:41;;;;;;;33.72;12.00;;;;;;;;;;5053079;28;20037;-69
2022/04/06 03:16:07;;;;;;;26.98;10.85;;;;;;;;;;5053444;28;20210;-69
2022/04/06 03:18:33;;;;;;;34.70;11.23;;;;;;;;;;5052424;28;20485;-68
2022/04/06 03:20:59;;;;;;;32.22;10.93;;;;;;;;;;5069692;28;20051;-68
2022/04/06 03:23:25;;;;;;;34.92;12.57;;;;;;;;;;5051581;28;20050;-68
2022/04/06 03:25:51;;;;;;;29.00;11.63;;;;;;;;;;5052544;28;20049;-68
2022/04/06 03:28:19;;;;;;;26.63;11.13;;;;;;;;;;5053925;28;20592;-69
2022/04/06 03:30:45;;;;;;;25.73;11.05;;;;;;;;;;5052958;28;20090;-69
2022/04/06 03:33:13;;;;;;;24.75;10.88;;;;;;;;;;5053953;28;20075;-69
2022/04/06 03:35:39;;;;;;;27.42;10.57;;;;;;;;;;5053152;28;20056;-69
2022/04/06 03:38:05;;;;;;;28.92;11.00;;;;;;;;;;5054864;28;20048;-69
2022/04/06 03:40:31;;;;;;;30.58;11.15;;;;;;;;;;5052652;28;20381;-69
2022/04/06 03:42:57;;;;;;;25.83;10.60;;;;;;;;;;5053172;28;20072;-69
2022/04/06 03:45:24;;;;;;;26.25;10.82;;;;;;;;;;5052597;28;20064;-68
2022/04/06 03:47:50;;;;;;;26.48;10.48;;;;;;;;;;5052811;28;20605;-69
2022/04/06 03:50:16;;;;;;;25.55;9.82;;;;;;;;;;5051908;28;20039;-69
2022/04/06 03:52:42;;;;;;;25.70;8.32;;;;;;;;;;5054076;28;20048;-69
2022/04/06 03:55:09;;;;;;;22.35;7.93;;;;;;;;;;5055114;28;20033;-69
2022/04/06 03:57:39;;;;;;;23.00;8.13;;;;;;;;;;5054379;28;20462;-69
2022/04/06 04:00:05;;;;;;;20.20;7.50;;;;;;;;;;5036210;28;20040;-69
2022/04/06 04:02:32;;;;;;;19.13;7.50;;;;;;;;;;5053772;28;20067;-69
2022/04/06 04:04:58;;;;;;;21.60;7.18;;;;;;;;;;5051602;28;20044;-69
2022/04/06 04:07:24;;;;;;;20.77;7.22;;;;;;;;;;5052005;28;20028;-71
2022/04/06 04:09:51;;;;;;;20.95;7.22;;;;;;;;;;5053985;28;20055;-69
2022/04/06 04:12:18;;;;;;;21.77;7.80;;;;;;;;;;5053399;28;20041;-69
2022/04/06 04:14:47;;;;;;;15.75;7.03;;;;;;;;;;5051669;28;20044;-68
2022/04/06 04:17:13;;;;;;;17.45;6.75;;;;;;;;;;5052187;28;20094;-69
2022/04/06 04:19:39;;;;;;;19.85;6.53;;;;;;;;;;5052567;28;20036;-69
2022/04/06 04:22:06;;;;;;;16.23;6.70;;;;;;;;;;5052378;28;20396;-69
2022/04/06 04:24:32;;;;;;;16.52;6.22;;;;;;;;;;5053480;28;20091;-69
2022/04/06 04:26:58;;;;;;;16.27;6.13;;;;;;;;;;5036244;28;20040;-68
2022/04/06 04:29:24;;;;;;;14.90;5.78;;;;;;;;;;5051664;28;20085;-68
2022/04/06 04:31:50;;;;;;;15.57;5.70;;;;;;;;;;5036209;28;20064;-68
2022/04/06 04:34:16;;;;;;;15.80;5.70;;;;;;;;;;5052848;28;20049;-68
2022/04/06 04:36:42;;;;;;;18.70;6.00;;;;;;;;;;5053664;28;20374;-68
2022/04/06 04:39:08;;;;;;;17.10;5.90;;;;;;;;;;5051824;28;20500;-68
2022/04/06 04:41:34;;;;;;;14.73;5.97;;;;;;;;;;5053588;28;20548;-68
2022/04/06 04:44:00;;;;;;;13.70;5.43;;;;;;;;;;5053782;28;20369;-68
2022/04/06 04:46:26;;;;;;;16.13;5.43;;;;;;;;;;5057348;28;20500;-68
2022/04/06 04:48:53;;;;;;;17.88;5.53;;;;;;;;;;5075680;28;20060;-68
2022/04/06 04:51:19;;;;;;;21.08;5.68;;;;;;;;;;5055743;28;20055;-68
2022/04/06 04:53:45;;;;;;;22.75;6.57;;;;;;;;;;5055253;28;20062;-68
2022/04/06 04:56:11;;;;;;;19.08;5.65;;;;;;;;;;5054696;28;20068;-68
2022/04/06 04:58:37;;;;;;;19.02;6.20;;;;;;;;;;5058290;28;20045;-68
2022/04/06 05:01:03;;;;;;;19.27;6.13;;;;;;;;;;5060284;28;20082;-68
2022/04/06 05:03:29;;;;;;;20.33;5.80;;;;;;;;;;5057328;28;20102;-68
2022/04/06 05:05:56;;;;;;;16.67;6.20;;;;;;;;;;5055385;28;20081;-68
2022/04/06 05:08:22;;;;;;;16.52;5.75;;;;;;;;;;5054548;28;20116;-68
2022/04/06 05:10:49;;;;;;;17.25;5.28;;;;;;;;;;5055723;28;20115;-68
2022/04/06 05:13:17;;;;;;;14.45;5.40;;;;;;;;;;5039932;28;20136;-68
2022/04/06 05:15:44;;;;;;;20.73;5.55;;;;;;;;;;5057579;28;20050;-68
2022/04/06 05:18:10;;;;;;;15.77;5.40;;;;;;;;;;5057601;28;20414;-68
2022/04/06 05:20:36;;;;;;;20.63;5.40;;;;;;;;;;5057520;28;20040;-68
2022/04/06 05:23:02;;;;;;;16.17;4.85;;;;;;;;;;5056332;28;20057;-68
2022/04/06 05:25:28;;;;;;;15.23;4.88;;;;;;;;;;5059840;28;20048;-68
2022/04/06 05:27:55;;;;;;;15.15;4.95;;;;;;;;;;5056428;28;20495;-68
2022/04/06 05:30:23;;;;;;;14.63;4.47;;;;;;;;;;5057959;28;20033;-68
2022/04/06 05:32:50;;;;;;;13.50;4.13;;;;;;;;;;5056474;28;20066;-68
2022/04/06 05:35:16;;;;;;;14.80;4.68;;;;;;;;;;5056206;28;20043;-68
2022/04/06 05:37:44;;;;;;;16.52;4.78;;;;;;;;;;5056722;28;20503;-68
2022/04/06 05:40:10;;;;;;;11.73;3.97;;;;;;;;;;5074080;28;20120;-68
2022/04/06 05:42:36;;;;;;;12.88;3.60;;;;;;;;;;5055858;28;20040;-68
2022/04/06 05:45:03;;;;;;;8.38;3.60;;;;;;;;;;5055792;28;20044;-68
2022/04/06 05:47:30;;;;;;;8.32;3.10;;;;;;;;;;5058213;28;20032;-68
2022/04/06 05:49:56;;;;;;;8.27;2.97;;;;;;;;;;5055203;28;20041;-68
2022/04/06 05:52:22;;;;;;;11.93;3.45;;;;;;;;;;5056641;28;20071;-68
2022/04/06 05:54:48;;;;;;;9.88;3.10;;;;;;;;;;5056969;28;20048;-68
2022/04/06 05:57:14;;;;;;;8.43;2.72;;;;;;;;;;5050901;28;20048;-68
2022/04/06 05:59:40;;;;;;;9.13;3.13;;;;;;;;;;5051490;28;20044;-68
2022/04/06 06:02:08;;;;;;;14.85;2.80;;;;;;;;;;5050444;28;20097;-68
2022/04/06 06:04:34;;;;;;;11.60;3.13;;;;;;;;;;5056078;28;20090;-68
2022/04/06 06:07:00;;;;;;;5.20;2.05;;;;;;;;;;5053444;28;20075;-68
2022/04/06 06:09:27;;;;;;;10.15;2.63;;;;;;;;;;5073303;28;20044;-68
2022/04/06 06:11:54;;;;;;;13.85;3.30;;;;;;;;;;5052120;28;20040;-68
2022/04/06 06:14:21;;;;;;;9.63;2.60;;;;;;;;;;5052436;28;20053;-68
2022/04/06 06:16:47;;;;;;;12.95;2.90;;;;;;;;;;5049221;28;20867;-68
2022/04/06 06:19:13;;;;;;;9.95;3.03;;;;;;;;;;5050140;28;20044;-69
2022/04/06 06:21:39;;;;;;;14.23;3.03;;;;;;;;;;5049914;28;20110;-69
2022/04/06 06:24:06;;;;;;;7.90;2.63;;;;;;;;;;5049439;28;20113;-68
2022/04/06 06:26:36;;;;;;;10.68;3.15;;;;;;;;;;5050327;28;20056;-68
2022/04/06 06:29:02;;;;;;;10.40;2.80;;;;;;;;;;5050813;28;20059;-68
2022/04/06 06:31:28;;;;;;;13.32;3.22;;;;;;;;;;5035309;28;20048;-68
2022/04/06 06:33:58;;;;;;;15.15;3.38;;;;;;;;;;5051883;28;20043;-68
2022/04/06 06:36:24;;;;;;;12.40;3.08;;;;;;;;;;5051787;28;20680;-68
2022/04/06 06:38:51;;;;;;;14.65;3.65;;;;;;;;;;5050040;28;20079;-69
2022/04/06 06:41:18;;;;;;;17.50;3.45;;;;;;;;;;5051830;28;20385;-69
2022/04/06 06:43:44;;;;;;;12.32;3.30;;;;;;;;;;5051812;28;20378;-69
2022/04/06 06:46:11;;;;;;;12.13;2.97;;;;;;;;;;5050311;28;20051;-68
2022/04/06 06:48:37;;;;;;;9.27;2.88;;;;;;;;;;5049538;28;20416;-68
2022/04/06 06:51:03;;;;;;;13.75;3.03;;;;;;;;;;5050015;28;20040;-68
2022/04/06 06:53:29;;;;;;;10.60;3.22;;;;;;;;;;5050464;28;20036;-68
2022/04/06 06:55:56;;;;;;;12.52;3.10;;;;;;;;;;5050335;28;20037;-68
2022/04/06 06:58:22;;;;;;;10.85;3.45;;;;;;;;;;5049721;28;20044;-68
2022/04/06 07:00:48;;;;;;;12.68;2.90;;;;;;;;;;5050225;28;20040;-68
2022/04/06 07:03:14;;;;;;;8.13;2.85;;;;;;;;;;5049799;28;20048;-68
2022/04/06 07:05:40;;;;;;;11.65;3.22;;;;;;;;;;5048487;28;20060;-68
2022/04/06 07:08:06;;;;;;;11.35;3.28;;;;;;;;;;5049887;28;20470;-68
2022/04/06 07:10:32;;;;;;;7.90;3.05;;;;;;;;;;5048684;28;20044;-68
2022/04/06 07:12:59;;;;;;;11.05;3.08;;;;;;;;;;5032707;28;20048;-68
2022/04/06 07:15:26;;;;;;;13.60;2.90;;;;;;;;;;5050298;28;20048;-68
2022/04/06 07:17:56;;;;;;;10.90;2.97;;;;;;;;;;5049929;28;20132;-68
2022/04/06 07:20:22;;;;;;;11.85;3.03;;;;;;;;;;5050587;28;20064;-68
2022/04/06 07:22:49;;;;;;;10.27;3.60;;;;;;;;;;5046984;28;20057;-68
2022/04/06 07:25:15;;;;;;;10.23;3.13;;;;;;;;;;5046853;28;20061;-68
2022/04/06 07:27:41;;;;;;;10.40;3.88;;;;;;;;;;5047500;28;20040;-68
2022/04/06 07:30:08;;;;;;;14.50;4.00;;;;;;;;;;5029753;28;20064;-68
2022/04/06 07:32:35;;;;;;;13.07;3.30;;;;;;;;;;5046628;28;20401;-68
2022/04/06 07:35:03;;;;;;;14.50;4.28;;;;;;;;;;5046657;28;20477;-68
2022/04/06 07:37:40;;;;;;;12.38;4.18;;;;;;;;;;5046319;28;20068;-68
2022/04/06 07:40:07;;;;;;;13.10;4.20;;;;;;;;;;5046445;28;20048;-68
2022/04/06 07:42:35;;;;;;;10.05;4.25;;;;;;;;;;5045168;28;20743;-68
2022/04/06 07:45:01;;;;;;;15.70;3.83;;;;;;;;;;5045839;28;20091;-68
2022/04/06 07:47:34;;;;;;;16.40;4.38;;;;;;;;;;5044551;28;20506;-68
2022/04/06 07:50:01;;;;;;;12.05;4.30;;;;;;;;;;5045022;28;20351;-68
2022/04/06 07:52:30;;;;;;;12.95;4.30;;;;;;;;;;5046297;28;20424;-68
2022/04/06 07:54:56;;;;;;;17.20;4.10;;;;;;;;;;5046444;28;20481;-68
2022/04/06 07:57:27;;;;;;;12.00;4.13;;;;;;;;;;5047202;28;20037;-68
2022/04/06 07:59:57;;;;;;;11.65;4.30;;;;;;;;;;5048247;28;20098;-68
2022/04/06 08:02:23;;;;;;;13.70;4.03;;;;;;;;;;5045360;28;20045;-68
2022/04/06 08:04:50;;;;;;;14.32;4.68;;;;;;;;;;5047165;28;20069;-68
2022/04/06 08:07:16;;;;;;;15.27;4.07;;;;;;;;;;5047001;28;20095;-68
2022/04/06 08:09:43;;;;;;;14.30;4.20;;;;;;;;;;5047973;28;20342;-68
2022/04/06 08:12:10;;;;;;;11.63;3.53;;;;;;;;;;5045899;28;20041;-68
2022/04/06 08:14:36;;;;;;;17.90;4.50;;;;;;;;;;5046601;28;20041;-68
2022/04/06 08:17:02;;;;;;;14.18;3.83;;;;;;;;;;5043037;28;20083;-69
2022/04/06 08:19:28;;;;;;;13.27;3.38;;;;;;;;;;5047076;28;20037;-68
2022/04/06 08:21:54;;;;;;;16.25;4.20;;;;;;;;;;5051373;28;20717;-68
2022/04/06 08:24:20;;;;;;;13.98;3.38;;;;;;;;;;5050563;28;20552;-69
2022/04/06 08:26:46;;;;;;;12.82;3.47;;;;;;;;;;5053293;28;20043;-69
2022/04/06 08:29:13;;;;;;;16.48;3.42;;;;;;;;;;5051737;28;20036;-68
2022/04/06 08:31:39;;;;;;;16.60;3.67;;;;;;;;;;5050328;28;20067;-70
2022/04/06 08:34:06;;;;;;;14.15;4.57;;;;;;;;;;5052354;28;20045;-69
2022/04/06 08:36:35;;;;;;;11.43;3.20;;;;;;;;;;5052704;28;20036;-69
2022/04/06 08:39:02;;;;;;;10.18;3.42;;;;;;;;;;5052776;28;20072;-68
2022/04/06 08:41:29;;;;;;;13.70;3.40;;;;;;;;;;5034509;28;20044;-68
2022/04/06 08:43:59;;;;;;;11.55;3.10;;;;;;;;;;5050936;28;20049;-68
2022/04/06 08:46:25;;;;;;;13.85;3.30;;;;;;;;;;5052793;28;20116;-68
2022/04/06 08:48:52;;;;;;;9.32;2.85;;;;;;;;;;5050542;28;21457;-68
2022/04/06 08:51:18;;;;;;;9.85;3.00;;;;;;;;;;5051939;28;20740;-69
2022/04/06 08:53:45;;;;;;;12.30;3.08;;;;;;;;;;5049389;28;20404;-69
2022/04/06 08:56:14;;;;;;;12.23;2.97;;;;;;;;;;5048636;28;20047;-69
2022/04/06 08:58:44;;;;;;;11.73;3.50;;;;;;;;;;5049831;28;20048;-69
2022/04/06 09:01:10;;;;;;;9.90;2.90;;;;;;;;;;5068557;28;20115;-68
2022/04/06 09:03:37;;;;;;;11.50;3.20;;;;;;;;;;5050819;28;20041;-68
2022/04/06 09:06:05;;;;;;;10.07;3.05;;;;;;;;;;5050340;28;20397;-69
2022/04/06 09:08:49;;;;;;;9.52;2.95;;;;;;;;;;5051282;28;20157;-69
2022/04/06 09:11:17;;;;;;;16.17;3.70;;;;;;;;;;5050996;28;20443;-69
2022/04/06 09:13:44;;;;;;;10.70;3.17;;;;;;;;;;5050910;28;20054;-69
2022/04/06 09:16:11;;;;;;;12.65;3.08;;;;;;;;;;5051994;28;20127;-68
2022/04/06 09:18:46;;;;;;;8.32;3.10;;;;;;;;;;5051662;28;20052;-69
2022/04/06 09:21:14;;;;;;;8.82;3.30;;;;;;;;;;5049814;28;20033;-69
2022/04/06 09:23:40;;;;;;;9.55;3.53;;;;;;;;;;5051814;28;20056;-69
2022/04/06 09:26:13;;;;;;;12.63;3.80;;;;;;;;;;5052323;28;20036;-68
2022/04/06 09:28:40;;;;;;;9.23;3.88;;;;;;;;;;5049823;28;20127;-69
2022/04/06 09:31:06;;;;;;;17.05;4.25;;;;;;;;;;5050293;28;20068;-69
2022/04/06 09:33:34;;;;;;;11.73;4.22;;;;;;;;;;5052433;28;20067;-69
2022/04/06 09:36:00;;;;;;;8.65;4.15;;;;;;;;;;5052074;28;20048;-69
2022/04/06 09:38:31;;;;;;;12.32;4.13;;;;;;;;;;5050709;28;20082;-69
2022/04/06 09:41:02;;;;;;;14.80;4.40;;;;;;;;;;5050626;28;20055;-69
2022/04/06 09:43:32;;;;;;;13.18;4.10;;;;;;;;;;5049698;28;20082;-69
2022/04/06 09:49:05;;;;;;;13.63;4.18;;;;;;;;;;5066023;28;20137;-69
2022/04/06 09:51:32;;;;;;;11.13;4.47;;;;;;;;;;5047529;28;20114;-69
2022/04/06 09:54:01;;;;;;;9.73;3.90;;;;;;;;;;5049289;28;20049;-69
2022/04/06 09:56:27;;;;;;;11.45;4.72;;;;;;;;;;5049278;28;20061;-68
2022/04/06 09:58:56;;;;;;;11.07;4.90;;;;;;;;;;5050964;28;20044;-69
2022/04/06 10:01:22;;;;;;;13.95;4.93;;;;;;;;;;5048585;28;20055;-68
2022/04/06 10:03:55;;;;;;;15.13;5.13;;;;;;;;;;5049012;28;20044;-69
2022/04/06 10:06:22;;;;;;;14.30;4.88;;;;;;;;;;5049763;28;20063;-69
2022/04/06 10:08:49;;;;;;;18.08;4.90;;;;;;;;;;5050345;28;20032;-69
2022/04/06 10:11:17;;;;;;;14.05;5.00;;;;;;;;;;5050909;28;20048;-69
2022/04/06 10:13:44;;;;;;;13.00;4.68;;;;;;;;;;5032808;28;20044;-68
2022/04/06 10:16:12;;;;;;;9.95;4.63;;;;;;;;;;5050396;28;20044;-68
2022/04/06 10:18:38;;;;;;;7.88;3.88;;;;;;;;;;5049219;28;20732;-68
2022/04/06 10:21:19;;;;;;;14.18;4.85;;;;;;;;;;5033135;28;20040;-68
2022/04/06 10:23:45;;;;;;;14.70;4.97;;;;;;;;;;5068116;28;20119;-68
2022/04/06 10:26:23;;;;;;;13.68;4.72;;;;;;;;;;5051110;28;20393;-68
2022/04/06 10:28:51;;;;;;;12.45;5.32;;;;;;;;;;5050785;28;20368;-68
2022/04/06 10:31:19;;;;;;;14.20;4.68;;;;;;;;;;5046394;28;20040;-68
2022/04/06 10:33:46;;;;;;;10.38;5.05;;;;;;;;;;5049924;28;20441;-68
2022/04/06 10:36:30;;;;;;;13.90;5.57;;;;;;;;;;5050496;28;20112;-69
2022/04/06 10:39:09;;;;;;;12.98;5.25;;;;;;;;;;5064484;28;20051;-68
2022/04/06 10:41:39;;;;;;;11.23;5.28;;;;;;;;;;5046447;28;20527;-68
2022/04/06 10:44:06;;;;;;;11.38;5.43;;;;;;;;;;5048273;28;20085;-68
2022/04/06 10:46:38;;;;;;;11.43;5.60;;;;;;;;;;5050142;28;20167;-68
2022/04/06 10:49:10;;;;;;;12.40;5.50;;;;;;;;;;5048803;28;20123;-68
2022/04/06 10:51:44;;;;;;;14.20;5.65;;;;;;;;;;5049664;28;20044;-68
2022/04/06 10:54:13;;;;;;;15.93;6.30;;;;;;;;;;5048627;28;20108;-68
2022/04/06 10:56:55;;;;;;;12.98;6.28;;;;;;;;;;5050149;28;20132;-69
2022/04/06 10:59:21;;;;;;;13.77;6.45;;;;;;;;;;5050890;28;20127;-69
2022/04/06 11:01:48;;;;;;;15.65;6.53;;;;;;;;;;5051358;28;20099;-68
2022/04/06 11:04:24;;;;;;;13.38;5.88;;;;;;;;;;5051350;28;20388;-68
2022/04/06 11:06:55;;;;;;;11.02;6.40;;;;;;;;;;5051199;28;20048;-69
2022/04/06 11:12:35;;;;;;;13.95;6.47;;;;;;;;;;5068690;28;20388;-69
2022/04/06 11:15:01;;;;;;;13.88;6.85;;;;;;;;;;5051587;28;20084;-68
2022/04/06 11:17:42;;;;;;;16.92;6.47;;;;;;;;;;5049698;28;20546;-68
2022/04/06 11:20:10;;;;;;;15.75;7.25;;;;;;;;;;5050114;28;20040;-68
2022/04/06 11:22:40;;;;;;;14.82;6.72;;;;;;;;;;5050679;28;20060;-66
2022/04/06 11:25:07;;;;;;;13.73;7.05;;;;;;;;;;5050060;28;20053;-68
2022/04/06 11:27:34;;;;;;;10.88;6.55;;;;;;;;;;5050367;28;20117;-68
2022/04/06 11:30:04;;;;;;;14.80;7.03;;;;;;;;;;5031316;28;20060;-69
2022/04/06 11:32:30;;;;;;;16.52;7.13;;;;;;;;;;5049674;28;20161;-68
2022/04/06 11:35:05;;;;;;;24.52;8.70;;;;;;;;;;5051584;28;20449;-68
2022/04/06 11:37:32;;;;;;;19.00;7.95;;;;;;;;;;5050566;28;20500;-68
2022/04/06 11:40:01;;;;;;;15.75;7.68;;;;;;;;;;5067606;28;20043;-68
2022/04/06 11:42:27;;;;;;;16.48;7.90;;;;;;;;;;5067595;28;20112;-69
2022/04/06 11:44:54;;;;;;;17.50;8.35;;;;;;;;;;5046096;28;20052;-68
2022/04/06 11:47:26;;;;;;;16.95;8.60;;;;;;;;;;5050250;28;20044;-68
2022/04/06 11:49:52;;;;;;;17.92;8.25;;;;;;;;;;5050526;28;20044;-68
2022/04/06 11:52:19;;;;;;;14.00;7.75;;;;;;;;;;5050776;28;20041;-68
2022/04/06 11:54:55;;;;;;;14.88;9.00;;;;;;;;;;5050937;28;20044;-68
2022/04/06 11:57:21;;;;;;;13.07;7.38;;;;;;;;;;5055081;28;20052;-68
2022/04/06 11:59:54;;;;;;;17.48;7.43;;;;;;;;;;5055842;28;20048;-68
2022/04/06 12:02:20;;;;;;;12.52;5.43;;;;;;;;;;5054422;28;20128;-68
2022/04/06 12:04:48;;;;;;;15.57;6.80;;;;;;;;;;5054103;28;20469;-68
2022/04/06 12:07:20;;;;;;;14.15;6.40;;;;;;;;;;5055279;28;20040;-69
2022/04/06 12:09:47;;;;;;;15.13;6.20;;;;;;;;;;5056116;28;20071;-69
2022/04/06 12:12:13;;;;;;;14.32;6.13;;;;;;;;;;5055722;28;20036;-69
2022/04/06 12:14:41;;;;;;;13.95;6.57;;;;;;;;;;5055046;28;20048;-69
2022/04/06 12:17:07;;;;;;;11.23;6.13;;;;;;;;;;5054984;28;20126;-68
2022/04/06 12:19:33;;;;;;;13.10;6.38;;;;;;;;;;5056090;28;20808;-68
2022/04/06 12:22:07;;;;;;;13.38;6.90;;;;;;;;;;5051708;28;20092;-68
2022/04/06 12:24:37;;;;;;;12.70;6.30;;;;;;;;;;5054266;28;20053;-68
2022/04/06 12:27:03;;;;;;;11.38;6.22;;;;;;;;;;5052148;28;20028;-68
2022/04/06 12:29:31;;;;;;;14.55;6.97;;;;;;;;;;5053234;28;20037;-68
2022/04/06 12:31:57;;;;;;;12.15;5.65;;;;;;;;;;5053096;28;20089;-69
2022/04/06 12:34:37;;;;;;;13.60;6.70;;;;;;;;;;5051426;28;20043;-69
2022/04/06 12:39:50;;;;;;;11.07;7.28;;;;;;;;;;5052163;28;20631;-69
2022/04/06 12:42:16;;;;;;;12.98;6.97;;;;;;;;;;5052929;28;20040;-69
2022/04/06 12:44:55;;;;;;;15.07;7.25;;;;;;;;;;5053275;28;20057;-69
2022/04/06 12:47:23;;;;;;;15.18;6.93;;;;;;;;;;5052039;28;20102;-69
2022/04/06 12:49:49;;;;;;;13.82;7.00;;;;;;;;;;5047201;28;20045;-68
2022/04/06 12:52:17;;;;;;;9.93;6.22;;;;;;;;;;5050069;28;20044;-69
2022/04/06 12:54:43;;;;;;;12.27;6.65;;;;;;;;;;5049231;28;20045;-69
2022/04/06 12:57:13;;;;;;;11.60;6.43;;;;;;;;;;5049746;28;20440;-68
2022/04/06 12:59:41;;;;;;;9.68;5.97;;;;;;;;;;5049586;28;20049;-68
2022/04/06 13:02:18;;;;;;;8.32;5.13;;;;;;;;;;5050556;28;20056;-68
2022/04/06 13:04:44;;;;;;;11.38;6.15;;;;;;;;;;5049241;28;20052;-68
2022/04/06 13:07:11;;;;;;;9.63;5.55;;;;;;;;;;5033333;28;20037;-68
2022/04/06 13:09:51;;;;;;;11.60;5.50;;;;;;;;;;5050656;28;20091;-68
2022/04/06 13:12:18;;;;;;;10.90;5.45;;;;;;;;;;5051402;28;20064;-69
2022/04/06 13:14:44;;;;;;;9.85;5.57;;;;;;;;;;5047784;28;20066;-69
2022/04/06 13:17:10;;;;;;;13.65;5.28;;;;;;;;;;5048858;28;20048;-69
2022/04/06 13:19:36;;;;;;;9.95;5.40;;;;;;;;;;5050172;28;20056;-69
2022/04/06 13:22:02;;;;;;;8.63;4.88;;;;;;;;;;5052356;28;20067;-69
2022/04/06 13:24:28;;;;;;;10.95;5.25;;;;;;;;;;5051431;28;20047;-69
2022/04/06 13:26:54;;;;;;;8.82;4.95;;;;;;;;;;5068370;28;20067;-69
2022/04/06 13:29:20;;;;;;;8.52;5.53;;;;;;;;;;5050393;28;20045;-69
2022/04/06 13:31:46;;;;;;;10.02;5.45;;;;;;;;;;5050703;28;20668;-69
2022/04/06 13:34:15;;;;;;;7.68;5.43;;;;;;;;;;5033299;28;20136;-69
2022/04/06 13:36:41;;;;;;;10.50;6.40;;;;;;;;;;5049023;28;20384;-69
2022/04/06 13:39:07;;;;;;;8.65;5.45;;;;;;;;;;5050513;28;20044;-69
2022/04/06 13:41:33;;;;;;;8.90;6.03;;;;;;;;;;5049674;28;20064;-69
2022/04/06 13:43:59;;;;;;;8.52;5.55;;;;;;;;;;5049572;28;21417;-69
2022/04/06 13:46:25;;;;;;;11.55;5.95;;;;;;;;;;5050611;28;20560;-69
2022/04/06 13:48:56;;;;;;;10.75;5.82;;;;;;;;;;5049396;28;20048;-69
2022/04/06 13:51:22;;;;;;;8.63;5.50;;;;;;;;;;5031748;28;20128;-69
2022/04/06 13:53:48;;;;;;;6.70;5.15;;;;;;;;;;5068320;28;20028;-69
2022/04/06 13:56:14;;;;;;;8.10;6.47;;;;;;;;;;5050598;28;20032;-69
2022/04/06 13:58:40;;;;;;;8.25;5.50;;;;;;;;;;5048597;28;20181;-69
2022/04/06 14:01:06;;;;;;;10.52;6.18;;;;;;;;;;5049894;28;20045;-69
2022/04/06 14:03:33;;;;;;;9.65;6.25;;;;;;;;;;5047883;28;20097;-69
2022/04/06 14:06:00;;;;;;;9.20;5.85;;;;;;;;;;5049905;28;20044;-70
2022/04/06 14:08:27;;;;;;;8.13;4.55;;;;;;;;;;5049168;28;20048;-70
2022/04/06 14:10:54;;;;;;;8.25;5.30;;;;;;;;;;5049086;28;20155;-70
2022/04/06 14:13:21;;;;;;;7.85;4.72;;;;;;;;;;5048924;28;20105;-70
2022/04/06 14:15:48;;;;;;;5.90;3.88;;;;;;;;;;5048504;28;20070;-70
2022/04/06 14:18:14;;;;;;;6.55;4.25;;;;;;;;;;5066764;28;20412;-70
2022/04/06 14:20:40;;;;;;;5.93;3.83;;;;;;;;;;5048996;28;20519;-70
2022/04/06 14:23:06;;;;;;;5.18;4.05;;;;;;;;;;5048861;28;20397;-70
2022/04/06 14:25:32;;;;;;;6.00;3.42;;;;;;;;;;5048758;28;20148;-70
2022/04/06 14:27:59;;;;;;;5.65;3.22;;;;;;;;;;5046071;28;20040;-70
2022/04/06 14:30:25;;;;;;;5.97;3.83;;;;;;;;;;5048080;28;20072;-70
2022/04/06 14:32:52;;;;;;;8.07;3.90;;;;;;;;;;5047615;28;20036;-71
2022/04/06 14:35:18;;;;;;;5.70;3.75;;;;;;;;;;5048946;28;20040;-70
2022/04/06 14:37:45;;;;;;;5.50;3.97;;;;;;;;;;5047808;28;20044;-71
2022/04/06 14:40:18;;;;;;;9.05;4.78;;;;;;;;;;5103310;27;20512;-70
2022/04/06 14:42:45;;;;;;;9.02;5.07;;;;;;;;;;5081286;28;20044;-70